Time;durP1;ratioP1;P1;durP2;ratioP2;P2;SDS_P1;SDS_P2;PMS_P1;PMS_P2;Temp;Humidity;BMP_temperature;BMP_pressure;BME280_temperature;BME280_humidity;BME280_pressure;Samples;Min_cycle;Max_cycle;Signal;HPM_P1;HPM_P2
2023/08/26 00:00:12;;;;;;;22.90;7.20;;;;;;;30.84;45.35;98385.67;67724;1280;1018879;-60
2023/08/26 00:03:34;;;;;;;18.80;6.70;;;;;;;30.65;46.01;98383.27;67776;1280;1016171;-60
2023/08/26 00:06:37;;;;;;;19.80;6.80;;;;;;;30.56;45.97;98380.63;67791;1280;1016232;-60
2023/08/26 00:09:40;;;;;;;22.20;7.20;;;;;;;30.68;45.89;98381.67;67778;1280;1016901;-60
2023/08/26 00:12:42;;;;;;;22.50;7.20;;;;;;;30.67;46.07;98382.84;67701;1280;1016475;-60
2023/08/26 00:15:45;;;;;;;22.00;7.40;;;;;;;30.81;46.04;98389.21;67751;1280;1016061;-60
2023/08/26 00:18:49;;;;;;;22.60;6.80;;;;;;;30.80;46.10;98391.88;67703;1280;1016375;-60
2023/08/26 00:21:52;;;;;;;22.00;7.30;;;;;;;30.91;46.06;98383.45;67784;1280;1016694;-60
2023/08/26 00:24:54;;;;;;;21.70;6.70;;;;;;;30.91;46.10;98374.21;67727;1280;1016754;-59
2023/08/26 00:27:57;;;;;;;21.30;6.40;;;;;;;30.76;46.39;98372.49;67789;1280;1018207;-60
2023/08/26 00:30:59;;;;;;;21.80;7.20;;;;;;;30.83;46.35;98370.42;67757;1280;1016395;-60
2023/08/26 00:34:03;;;;;;;21.50;7.00;;;;;;;30.90;46.06;98367.88;67740;1280;1016043;-60
2023/08/26 00:37:06;;;;;;;20.80;7.10;;;;;;;30.85;46.07;98360.17;67785;1280;1016809;-60
2023/08/26 00:40:08;;;;;;;19.80;7.00;;;;;;;30.96;45.86;98359.17;67747;1280;1016110;-60
2023/08/26 00:43:11;;;;;;;20.10;6.70;;;;;;;30.79;46.20;98357.56;67755;1280;1018048;-60
2023/08/26 00:46:13;;;;;;;20.50;6.40;;;;;;;30.73;46.24;98363.02;67801;1280;1016961;-60
2023/08/26 00:49:15;;;;;;;21.00;6.70;;;;;;;30.68;46.23;98368.27;67779;1280;1016424;-60
2023/08/26 00:52:18;;;;;;;20.70;6.80;;;;;;;30.67;46.27;98359.73;67755;1280;1016556;-60
2023/08/26 00:55:20;;;;;;;20.70;6.80;;;;;;;30.61;46.42;98359.21;67725;1280;1016877;-60
2023/08/26 00:58:23;;;;;;;23.10;7.00;;;;;;;30.42;46.75;98354.91;67746;1280;1016671;-60
2023/08/26 01:01:25;;;;;;;22.00;6.80;;;;;;;30.41;46.96;98352.08;67797;1280;1016072;-60
2023/08/26 01:04:28;;;;;;;20.50;6.80;;;;;;;30.50;47.05;98360.09;67773;1280;1016405;-60
2023/08/26 01:07:30;;;;;;;23.00;7.00;;;;;;;30.58;46.83;98360.70;67796;1280;1016220;-60
2023/08/26 01:10:32;;;;;;;20.60;7.20;;;;;;;30.43;46.84;98363.97;67719;1280;1016144;-60
2023/08/26 01:13:35;;;;;;;22.20;7.30;;;;;;;30.42;47.01;98365.98;67732;1280;1016112;-60
2023/08/26 01:16:37;;;;;;;21.90;6.90;;;;;;;30.36;46.90;98366.83;67744;1280;1016446;-60
2023/08/26 01:19:40;;;;;;;19.00;6.70;;;;;;;30.21;47.29;98372.88;67779;1280;1016388;-60
2023/08/26 01:22:42;;;;;;;21.50;7.00;;;;;;;30.08;47.42;98371.16;67745;1280;1016481;-60
2023/08/26 01:25:46;;;;;;;24.70;7.20;;;;;;;30.06;47.49;98370.23;67732;1280;1015674;-60
2023/08/26 01:28:48;;;;;;;20.00;7.50;;;;;;;30.26;47.07;98368.19;67711;1280;1015983;-60
2023/08/26 01:31:52;;;;;;;21.00;7.40;;;;;;;30.14;47.16;98374.78;67710;1280;1016443;-60
2023/08/26 01:34:54;;;;;;;22.60;7.70;;;;;;;30.13;47.08;98379.16;67771;1280;1016489;-60
2023/08/26 01:37:57;;;;;;;26.30;7.40;;;;;;;30.16;46.99;98380.28;67724;1280;1016141;-60
2023/08/26 01:40:59;;;;;;;22.40;6.90;;;;;;;29.91;47.76;98376.88;67745;1280;1016267;-60
2023/08/26 01:44:02;;;;;;;21.80;7.70;;;;;;;29.85;47.69;98378.40;67788;1280;1016450;-60
2023/08/26 01:47:05;;;;;;;21.80;8.10;;;;;;;29.77;47.82;98371.88;67759;1280;1016140;-60
2023/08/26 01:50:07;;;;;;;20.10;7.30;;;;;;;29.59;48.26;98372.04;67719;1280;1016505;-60
2023/08/26 01:53:10;;;;;;;21.60;7.30;;;;;;;29.62;48.19;98378.02;67711;1280;1016134;-60
2023/08/26 01:56:13;;;;;;;20.80;7.40;;;;;;;29.54;48.27;98376.99;67749;1280;1016430;-60
2023/08/26 01:59:16;;;;;;;22.00;7.30;;;;;;;29.53;48.24;98380.27;67702;1280;1016503;-60
2023/08/26 02:02:19;;;;;;;21.60;7.20;;;;;;;29.41;48.25;98382.85;67774;1280;1015965;-60
2023/08/26 02:05:22;;;;;;;21.60;7.30;;;;;;;29.34;48.47;98383.74;67714;1280;1018366;-60
2023/08/26 02:08:24;;;;;;;23.20;8.00;;;;;;;29.32;48.39;98390.45;67722;1280;1016236;-60
2023/08/26 02:11:27;;;;;;;25.90;8.10;;;;;;;29.35;48.29;98387.42;67763;1280;1016050;-60
2023/08/26 02:14:29;;;;;;;22.90;8.20;;;;;;;29.28;48.65;98392.55;67775;1280;1016329;-60
2023/08/26 02:17:32;;;;;;;22.80;8.10;;;;;;;29.24;48.82;98397.20;67751;1280;1016348;-60
2023/08/26 02:20:34;;;;;;;21.60;8.20;;;;;;;29.25;48.61;98396.92;67744;1280;1016465;-59
2023/08/26 02:23:37;;;;;;;22.40;8.30;;;;;;;29.14;48.60;98391.91;67771;1280;1016201;-60
2023/08/26 02:26:39;;;;;;;20.70;8.20;;;;;;;28.98;49.03;98390.91;67733;1280;1016391;-60
2023/08/26 02:29:42;;;;;;;22.50;8.20;;;;;;;28.85;49.31;98390.48;67724;1280;1016172;-60
2023/08/26 02:32:44;;;;;;;21.10;7.90;;;;;;;28.85;49.35;98392.41;67741;1280;1016828;-60
2023/08/26 02:35:47;;;;;;;23.40;7.80;;;;;;;28.75;48.93;98387.27;67761;1280;1016122;-60
2023/08/26 02:38:49;;;;;;;27.20;9.70;;;;;;;28.57;49.33;98387.72;67774;1280;1016549;-59
2023/08/26 02:41:52;;;;;;;24.30;9.30;;;;;;;28.57;49.42;98389.61;67801;1280;1017389;-60
2023/08/26 02:44:54;;;;;;;23.50;9.70;;;;;;;28.61;49.79;98395.38;67731;1280;1016342;-60
2023/08/26 02:47:59;;;;;;;20.40;7.70;;;;;;;28.54;49.56;98394.00;67746;1280;1016231;-60
2023/08/26 02:51:02;;;;;;;23.20;7.50;;;;;;;28.41;49.69;98400.12;67799;1280;1016376;-59
2023/08/26 02:54:04;;;;;;;24.30;8.60;;;;;;;28.33;49.61;98396.73;67722;1280;1016310;-60
2023/08/26 02:57:07;;;;;;;20.30;7.40;;;;;;;28.26;50.05;98395.13;67735;1280;1015804;-60
2023/08/26 03:00:09;;;;;;;23.20;8.90;;;;;;;28.22;50.02;98400.89;67780;1280;1016456;-60
2023/08/26 03:03:12;;;;;;;21.20;8.30;;;;;;;28.22;49.80;98396.08;67777;1280;1016209;-59
2023/08/26 03:06:14;;;;;;;24.60;8.40;;;;;;;28.26;49.95;98403.05;67704;1280;1015733;-60
2023/08/26 03:09:17;;;;;;;22.60;9.40;;;;;;;28.26;49.95;98404.30;67714;1280;1016270;-60
2023/08/26 03:12:19;;;;;;;22.30;8.30;;;;;;;28.25;49.89;98405.18;67771;1280;1016505;-60
2023/08/26 03:15:22;;;;;;;25.90;9.60;;;;;;;28.24;50.01;98406.92;67793;1280;1016498;-60
2023/08/26 03:18:24;;;;;;;28.70;9.80;;;;;;;28.16;50.36;98406.98;67712;1280;1016417;-60
2023/08/26 03:21:27;;;;;;;31.60;10.40;;;;;;;28.04;50.63;98407.52;67732;1280;1016804;-60
2023/08/26 03:24:29;;;;;;;26.80;11.20;;;;;;;28.01;51.04;98404.79;67760;1280;1016578;-60
2023/08/26 03:27:31;;;;;;;24.30;9.50;;;;;;;28.04;50.92;98400.49;67778;1280;1015887;-60
2023/08/26 03:30:34;;;;;;;22.80;8.50;;;;;;;28.14;50.52;98400.52;67737;1280;1018008;-59
2023/08/26 03:33:36;;;;;;;22.50;8.60;;;;;;;28.12;50.40;98400.61;67750;1280;1016446;-60
2023/08/26 03:36:39;;;;;;;22.20;8.40;;;;;;;28.14;50.42;98403.02;67756;1280;1018544;-60
2023/08/26 03:39:42;;;;;;;21.30;8.30;;;;;;;28.08;50.30;98401.60;67630;1280;1016392;-60
2023/08/26 03:42:44;;;;;;;24.30;8.30;;;;;;;27.95;50.65;98401.73;67734;1280;1016307;-60
2023/08/26 03:45:47;;;;;;;23.60;8.10;;;;;;;27.85;50.94;98406.27;67684;1280;1018601;-60
2023/08/26 03:48:49;;;;;;;24.90;8.70;;;;;;;27.91;50.71;98408.30;67795;1280;1018282;-60
2023/08/26 03:51:52;;;;;;;21.70;8.30;;;;;;;27.90;50.79;98408.27;67777;1280;1016395;-60
2023/08/26 03:54:54;;;;;;;20.90;7.70;;;;;;;27.89;50.91;98407.33;67734;1280;1016483;-60
2023/08/26 03:57:57;;;;;;;20.60;7.80;;;;;;;27.75;51.21;98411.86;67741;1280;1016236;-61
2023/08/26 04:00:59;;;;;;;24.50;8.60;;;;;;;27.67;51.32;98414.67;67789;1280;1016422;-60
2023/08/26 04:04:02;;;;;;;21.00;8.30;;;;;;;27.78;51.27;98417.13;67779;1280;1016806;-60
2023/08/26 04:07:05;;;;;;;24.80;8.30;;;;;;;27.78;51.36;98416.04;67737;1280;1016429;-60
2023/08/26 04:10:07;;;;;;;20.00;7.60;;;;;;;27.80;51.37;98417.02;67740;1280;1017868;-60
2023/08/26 04:13:10;;;;;;;22.10;8.20;;;;;;;27.92;51.01;98418.25;67760;1280;1016507;-60
2023/08/26 04:16:13;;;;;;;21.90;8.00;;;;;;;27.95;51.03;98425.38;67738;1280;1016258;-60
2023/08/26 04:19:18;;;;;;;21.10;8.40;;;;;;;28.10;50.83;98429.20;67786;1280;1016459;-60
2023/08/26 04:22:21;;;;;;;21.10;7.80;;;;;;;28.36;50.29;98432.39;67759;1280;1016461;-59
2023/08/26 04:25:26;;;;;;;25.10;7.90;;;;;;;28.37;50.19;98430.60;67717;1280;1016407;-60
2023/08/26 04:28:29;;;;;;;19.90;7.50;;;;;;;28.56;50.02;98427.52;67760;1280;1016156;-60
2023/08/26 04:31:32;;;;;;;22.40;8.30;;;;;;;28.25;51.02;98431.18;67766;1280;1016510;-60
2023/08/26 04:34:35;;;;;;;25.00;7.80;;;;;;;28.32;51.08;98428.60;67785;1280;1016509;-60
2023/08/26 04:37:39;;;;;;;24.10;8.20;;;;;;;28.43;50.83;98431.50;67746;1280;1016017;-60
2023/08/26 04:40:42;;;;;;;22.70;8.20;;;;;;;28.49;50.67;98436.55;67775;1280;1016402;-60
2023/08/26 04:43:47;;;;;;;22.40;7.40;;;;;;;28.53;50.82;98438.16;67788;1280;1016218;-60
2023/08/26 04:46:49;;;;;;;17.80;5.50;;;;;;;28.61;50.89;98434.05;67747;1280;1017823;-60
2023/08/26 04:49:51;;;;;;;20.90;7.60;;;;;;;28.78;50.80;98436.45;67805;1280;1015865;-60
2023/08/26 04:52:54;;;;;;;21.60;6.30;;;;;;;28.87;50.74;98443.37;67768;1280;1016153;-60
2023/08/26 04:55:56;;;;;;;19.90;6.70;;;;;;;29.14;50.63;98442.31;67790;1280;1018895;-60
2023/08/26 04:58:59;;;;;;;21.40;6.70;;;;;;;29.37;50.64;98447.65;67746;1280;1016289;-60
2023/08/26 05:02:01;;;;;;;19.40;6.40;;;;;;;29.53;50.52;98449.75;67694;1280;1017583;-60
2023/08/26 05:05:04;;;;;;;20.90;7.00;;;;;;;29.72;50.65;98450.98;67787;1280;1016462;-60
2023/08/26 05:08:06;;;;;;;20.40;7.50;;;;;;;29.95;50.37;98450.47;67768;1280;1016315;-60
2023/08/26 05:11:09;;;;;;;23.20;7.70;;;;;;;30.18;50.33;98445.65;67733;1280;1016320;-60
2023/08/26 05:14:11;;;;;;;23.70;7.70;;;;;;;30.42;50.04;98438.04;67731;1280;1016234;-60
2023/08/26 05:17:14;;;;;;;23.00;9.20;;;;;;;30.63;49.97;98440.88;67729;1280;1015756;-60
2023/08/26 05:20:16;;;;;;;23.20;8.20;;;;;;;30.86;50.02;98446.12;67797;1280;1016159;-60
2023/08/26 05:23:19;;;;;;;24.40;8.70;;;;;;;31.08;49.81;98445.79;67761;1280;1016046;-60
2023/08/26 05:26:21;;;;;;;26.40;8.20;;;;;;;31.28;49.59;98446.45;67720;1280;1015981;-60
2023/08/26 05:29:24;;;;;;;22.00;8.40;;;;;;;31.46;49.52;98446.66;67771;1280;1018302;-60
2023/08/26 05:32:26;;;;;;;24.30;8.80;;;;;;;31.67;48.85;98454.23;67776;1280;1016001;-60
2023/08/26 05:35:29;;;;;;;23.80;7.80;;;;;;;31.92;48.25;98452.92;67764;1280;1015799;-61
2023/08/26 05:38:31;;;;;;;24.50;8.00;;;;;;;32.07;47.42;98457.06;67723;1280;1016436;-60
2023/08/26 05:41:33;;;;;;;23.10;7.40;;;;;;;32.16;47.10;98462.46;67733;1280;1016066;-60
2023/08/26 05:44:36;;;;;;;23.20;6.70;;;;;;;32.14;46.77;98458.01;67767;1280;1016425;-60
2023/08/26 05:47:38;;;;;;;22.40;7.20;;;;;;;32.24;46.70;98457.08;67817;1280;1018072;-60
2023/08/26 05:50:41;;;;;;;20.20;6.50;;;;;;;32.40;46.31;98458.42;67720;1280;1017460;-60
2023/08/26 05:53:43;;;;;;;20.80;6.40;;;;;;;32.59;45.03;98459.08;67711;1280;1018178;-61
2023/08/26 05:56:46;;;;;;;18.00;6.20;;;;;;;32.58;45.31;98462.09;67753;1280;1016378;-60
2023/08/26 05:59:48;;;;;;;16.20;5.90;;;;;;;32.65;44.44;98459.03;67736;1280;1016303;-60
2023/08/26 06:02:51;;;;;;;18.10;6.10;;;;;;;32.84;44.17;98460.98;67764;1280;1016401;-60
2023/08/26 06:05:53;;;;;;;18.50;6.20;;;;;;;32.75;43.97;98458.52;67728;1280;1016134;-60
2023/08/26 06:08:56;;;;;;;19.30;6.10;;;;;;;32.77;44.38;98461.67;67739;1280;1016262;-60
2023/08/26 06:11:59;;;;;;;18.50;6.30;;;;;;;33.05;44.32;98465.95;67711;1280;1016416;-60
2023/08/26 06:15:02;;;;;;;21.40;6.10;;;;;;;33.24;43.87;98462.66;67732;1280;1016457;-60
2023/08/26 06:18:04;;;;;;;21.30;5.90;;;;;;;33.30;42.84;98466.12;67777;1280;1015962;-60
2023/08/26 06:21:07;;;;;;;19.20;6.00;;;;;;;33.29;43.38;98467.09;67764;1280;1016190;-60
2023/08/26 06:24:09;;;;;;;20.00;5.50;;;;;;;33.48;42.80;98470.42;67727;1280;1016618;-60
2023/08/26 06:27:14;;;;;;;19.70;6.40;;;;;;;33.35;42.19;98473.09;67757;1280;1016448;-60
2023/08/26 06:30:16;;;;;;;18.80;5.60;;;;;;;33.28;42.32;98472.19;67795;1280;1017040;-60
2023/08/26 06:33:19;;;;;;;20.80;6.10;;;;;;;33.51;42.32;98471.23;67762;1280;1016361;-60
2023/08/26 06:36:21;;;;;;;15.80;5.20;;;;;;;33.74;41.83;98470.77;67722;1280;1016711;-60
2023/08/26 06:39:24;;;;;;;18.10;5.90;;;;;;;33.78;41.70;98471.75;67769;1280;1016507;-60
2023/08/26 06:42:27;;;;;;;19.20;5.30;;;;;;;33.90;41.11;98479.84;67798;1280;1016322;-60
2023/08/26 06:45:29;;;;;;;16.10;5.30;;;;;;;34.06;40.85;98486.98;67692;1280;1016329;-60
2023/08/26 06:48:32;;;;;;;21.00;5.40;;;;;;;33.96;40.97;98486.11;67742;1280;1016348;-60
2023/08/26 06:51:34;;;;;;;17.50;5.00;;;;;;;33.70;41.83;98488.34;67746;1280;1016132;-60
2023/08/26 06:54:37;;;;;;;15.70;4.70;;;;;;;33.86;40.78;98491.55;67794;1280;1016502;-60
2023/08/26 06:57:39;;;;;;;16.00;5.00;;;;;;;34.00;40.47;98494.64;67781;1280;1016257;-60
2023/08/26 07:00:42;;;;;;;17.30;5.10;;;;;;;34.13;40.34;98500.77;67700;1280;1016364;-60
2023/08/26 07:03:45;;;;;;;15.80;4.70;;;;;;;34.47;40.21;98505.23;67814;1280;1016392;-60
2023/08/26 07:06:48;;;;;;;14.70;4.40;;;;;;;34.63;39.69;98513.81;67783;1280;1016400;-60
2023/08/26 07:09:51;;;;;;;14.00;4.70;;;;;;;34.77;39.19;98511.42;67806;1280;1016493;-60
2023/08/26 07:12:53;;;;;;;14.70;4.90;;;;;;;34.82;39.31;98512.46;67805;1280;1016542;-60
2023/08/26 07:15:56;;;;;;;17.10;5.90;;;;;;;34.99;39.54;98514.07;67734;1280;1016229;-61
2023/08/26 07:18:58;;;;;;;14.30;4.40;;;;;;;35.30;38.73;98515.39;67741;1280;1018102;-60
2023/08/26 07:22:01;;;;;;;14.20;4.50;;;;;;;35.49;38.19;98517.31;67783;1280;1016028;-60
2023/08/26 07:25:03;;;;;;;14.50;4.80;;;;;;;35.67;38.28;98513.09;67814;1280;1016432;-61
2023/08/26 07:28:06;;;;;;;14.70;4.60;;;;;;;35.77;37.66;98506.66;67757;1280;1016469;-60
2023/08/26 07:31:09;;;;;;;13.60;4.40;;;;;;;35.97;37.94;98506.16;67728;1280;1016305;-60
2023/08/26 07:34:11;;;;;;;16.50;4.30;;;;;;;36.05;37.12;98507.10;67799;1280;1016334;-60
2023/08/26 07:37:14;;;;;;;16.00;4.50;;;;;;;36.18;36.86;98512.05;67767;1280;1016372;-60
2023/08/26 07:40:16;;;;;;;13.60;4.30;;;;;;;36.31;36.56;98513.40;67764;1280;1016676;-60
2023/08/26 07:43:19;;;;;;;19.10;4.80;;;;;;;36.33;36.31;98512.48;67731;1280;1016388;-60
2023/08/26 07:46:22;;;;;;;13.00;4.40;;;;;;;36.70;36.44;98507.51;67781;1280;1016784;-60
2023/08/26 07:49:25;;;;;;;16.40;4.60;;;;;;;37.37;34.94;98507.58;67748;1280;1017629;-60
2023/08/26 07:52:27;;;;;;;15.40;4.60;;;;;;;37.61;34.29;98507.02;67766;1280;1017246;-61
2023/08/26 07:55:30;;;;;;;14.50;4.20;;;;;;;37.75;34.28;98507.93;67754;1280;1016282;-60
2023/08/26 07:58:33;;;;;;;14.80;4.20;;;;;;;37.78;35.07;98511.69;67723;1280;1016510;-61
2023/08/26 08:01:35;;;;;;;13.60;4.40;;;;;;;38.20;35.30;98509.69;67731;1280;1016619;-60
2023/08/26 08:04:37;;;;;;;16.30;4.90;;;;;;;38.62;34.46;98515.29;67804;1280;1016930;-61
2023/08/26 08:07:40;;;;;;;13.90;4.20;;;;;;;38.91;34.08;98523.24;67783;1280;1015999;-60
2023/08/26 08:10:42;;;;;;;12.50;4.20;;;;;;;38.53;32.81;98525.66;67732;1280;1016424;-60
2023/08/26 08:13:45;;;;;;;17.20;4.50;;;;;;;38.42;33.68;98522.48;67751;1280;1016105;-61
2023/08/26 08:16:47;;;;;;;15.70;4.90;;;;;;;38.76;33.84;98522.48;67767;1280;1016249;-61
2023/08/26 08:19:50;;;;;;;16.70;4.70;;;;;;;39.22;33.23;98518.14;67802;1280;1016466;-60
2023/08/26 08:22:52;;;;;;;16.00;4.80;;;;;;;39.24;32.54;98516.94;67715;1280;1016448;-60
2023/08/26 08:25:55;;;;;;;14.10;4.70;;;;;;;39.12;32.75;98515.11;67710;1280;1016746;-61
2023/08/26 08:28:57;;;;;;;16.00;5.20;;;;;;;39.16;32.66;98512.05;67754;1280;1016931;-60
2023/08/26 08:32:00;;;;;;;15.20;5.20;;;;;;;39.12;33.39;98510.71;67766;1280;1015886;-60
2023/08/26 08:35:02;;;;;;;14.80;4.50;;;;;;;39.74;32.73;98509.86;67769;1280;1016687;-60
2023/08/26 08:38:05;;;;;;;30.70;11.40;;;;;;;39.74;31.95;98507.99;67751;1280;1016487;-60
2023/08/26 08:41:07;;;;;;;25.80;10.60;;;;;;;39.87;31.36;98502.00;67781;1280;1017384;-60
2023/08/26 08:44:10;;;;;;;14.60;4.90;;;;;;;39.94;31.35;98504.88;67775;1280;1016353;-60
2023/08/26 08:47:13;;;;;;;12.20;4.10;;;;;;;40.09;31.33;98500.26;67739;1280;1016428;-60
2023/08/26 08:50:16;;;;;;;14.10;4.30;;;;;;;39.78;30.38;98501.20;67764;1280;1016455;-60
2023/08/26 08:53:18;;;;;;;15.00;3.90;;;;;;;39.80;30.89;98501.22;67780;1280;1016767;-60
2023/08/26 08:56:21;;;;;;;14.80;4.30;;;;;;;40.08;30.07;98498.73;67707;1280;1016185;-60
2023/08/26 08:59:23;;;;;;;18.10;4.50;;;;;;;40.20;30.50;98492.48;67713;1280;1016493;-61
2023/08/26 09:02:25;;;;;;;15.70;3.90;;;;;;;40.54;30.47;98488.73;67612;1280;1016795;-60
2023/08/26 09:05:28;;;;;;;13.70;4.50;;;;;;;40.53;29.05;98492.86;67764;1280;1016443;-60
2023/08/26 09:08:30;;;;;;;11.40;3.60;;;;;;;40.24;29.57;98488.23;67778;1280;1016428;-60
2023/08/26 09:11:32;;;;;;;15.40;4.00;;;;;;;40.31;29.53;98487.42;67729;1280;1018995;-59
2023/08/26 09:14:35;;;;;;;12.10;3.50;;;;;;;40.53;29.19;98486.17;67746;1280;1016094;-60
2023/08/26 09:17:37;;;;;;;17.20;4.60;;;;;;;40.65;28.76;98483.33;67711;1280;1016459;-61
2023/08/26 09:20:40;;;;;;;11.30;3.80;;;;;;;40.67;28.34;98481.27;67767;1280;1016315;-60
2023/08/26 09:23:43;;;;;;;15.70;4.00;;;;;;;40.34;28.75;98485.38;67730;1280;1016361;-60
2023/08/26 09:26:45;;;;;;;13.10;3.70;;;;;;;40.20;28.16;98479.01;67730;1280;1018326;-60
2023/08/26 09:29:48;;;;;;;13.40;3.80;;;;;;;40.17;28.47;98477.52;67741;1280;1016210;-60
2023/08/26 09:32:52;;;;;;;13.60;3.80;;;;;;;40.23;28.87;98478.08;67746;1280;1016961;-60
2023/08/26 09:35:54;;;;;;;12.70;3.90;;;;;;;40.13;28.42;98482.36;67770;1280;1016528;-60
2023/08/26 09:38:57;;;;;;;19.60;6.80;;;;;;;40.33;28.71;98483.42;67722;1257;1016359;-61
2023/08/26 09:42:00;;;;;;;12.80;3.50;;;;;;;40.69;28.09;98479.20;67718;1280;1016325;-61
2023/08/26 09:45:03;;;;;;;9.30;3.30;;;;;;;40.90;27.88;98469.89;67743;1280;1016775;-60
2023/08/26 09:48:07;;;;;;;13.20;3.40;;;;;;;41.22;28.28;98470.09;67784;1280;1017201;-60
2023/08/26 09:51:09;;;;;;;11.40;3.10;;;;;;;40.88;26.17;98476.35;67710;1280;1016408;-60
2023/08/26 09:54:11;;;;;;;11.90;3.90;;;;;;;40.40;27.12;98478.98;67724;1280;1017293;-60
2023/08/26 09:57:14;;;;;;;16.50;4.70;;;;;;;40.03;27.22;98480.78;67741;1280;1015856;-61
2023/08/26 10:00:17;;;;;;;10.60;3.40;;;;;;;39.97;27.59;98480.80;67701;1280;1015951;-60
2023/08/26 10:03:19;;;;;;;12.50;3.70;;;;;;;40.08;27.94;98482.52;67695;1280;1016240;-61
2023/08/26 10:06:22;;;;;;;12.00;3.80;;;;;;;40.34;27.36;98481.83;67718;1280;1016477;-61
2023/08/26 10:09:24;;;;;;;12.40;3.60;;;;;;;40.40;26.91;98477.61;67739;1280;1016472;-60
2023/08/26 10:12:26;;;;;;;13.00;3.50;;;;;;;40.46;27.19;98475.10;67779;1280;1017519;-60
2023/08/26 10:15:32;;;;;;;13.40;4.00;;;;;;;40.72;27.43;98480.08;67733;1280;1016626;-60
2023/08/26 10:18:34;;;;;;;11.40;3.40;;;;;;;40.53;26.76;98482.98;67773;1280;1016254;-60
2023/08/26 10:21:37;;;;;;;11.80;3.30;;;;;;;40.23;27.14;98479.08;67707;1280;1016791;-61
2023/08/26 10:24:39;;;;;;;8.90;3.10;;;;;;;40.11;26.45;98481.27;67700;1280;1016736;-60
2023/08/26 10:27:42;;;;;;;10.10;3.40;;;;;;;39.69;26.92;98480.30;67739;1280;1016455;-60
2023/08/26 10:30:44;;;;;;;13.20;3.60;;;;;;;39.54;27.04;98477.29;67728;1280;1016469;-60
2023/08/26 10:33:46;;;;;;;10.10;3.10;;;;;;;39.35;27.26;98468.10;67712;1280;1018173;-60
2023/08/26 10:36:49;;;;;;;10.10;3.50;;;;;;;39.50;27.54;98456.84;67681;1280;1016498;-60
2023/08/26 10:39:52;;;;;;;11.70;3.40;;;;;;;39.77;27.12;98439.68;67716;1257;1016500;-61
2023/08/26 10:42:54;;;;;;;12.90;3.90;;;;;;;39.78;26.99;98434.13;67734;1280;1016551;-59
2023/08/26 10:45:56;;;;;;;10.50;3.40;;;;;;;40.09;26.96;98418.59;67743;1280;1016423;-60
2023/08/26 10:48:59;;;;;;;9.00;3.50;;;;;;;40.24;27.34;98429.18;67601;1280;1016641;-61
2023/08/26 10:52:02;;;;;;;13.60;3.60;;;;;;;40.01;27.12;98423.27;67734;1280;1016717;-61
2023/08/26 10:55:04;;;;;;;15.30;3.80;;;;;;;40.05;26.95;98416.55;67729;1280;1016606;-60
2023/08/26 10:58:06;;;;;;;10.40;3.30;;;;;;;40.49;26.81;98412.55;67733;1280;1016866;-60
2023/08/26 11:01:09;;;;;;;12.80;3.60;;;;;;;40.98;27.09;98418.05;67704;1280;1016587;-61
2023/08/26 11:04:11;;;;;;;11.90;3.90;;;;;;;41.26;26.70;98428.14;67648;1280;1016496;-60
2023/08/26 11:07:13;;;;;;;12.40;3.60;;;;;;;41.47;26.71;98435.71;67725;1280;1016857;-60
2023/08/26 11:10:16;;;;;;;11.70;3.40;;;;;;;41.41;26.53;98440.95;67706;1280;1016414;-60
2023/08/26 11:13:18;;;;;;;11.70;3.50;;;;;;;41.61;26.45;98444.69;67767;1280;1016042;-61
2023/08/26 11:16:21;;;;;;;13.20;3.80;;;;;;;41.66;26.73;98447.55;67743;1280;1016267;-60
2023/08/26 11:19:23;;;;;;;12.60;3.90;;;;;;;41.81;26.08;98443.05;67709;1280;1016413;-60
2023/08/26 11:22:26;;;;;;;9.00;3.60;;;;;;;41.96;26.18;98447.93;67698;1280;1008306;-61
2023/08/26 11:25:28;;;;;;;10.30;3.40;;;;;;;41.50;26.36;98461.29;67754;1280;1016397;-60
2023/08/26 11:28:30;;;;;;;11.10;3.70;;;;;;;40.86;26.67;98471.66;67743;1280;1016369;-60
2023/08/26 11:31:33;;;;;;;10.50;3.30;;;;;;;40.31;26.72;98474.95;67735;1280;1016510;-60
2023/08/26 11:34:35;;;;;;;12.10;3.60;;;;;;;39.90;27.45;98478.26;67686;1280;1017314;-60
2023/08/26 11:37:38;;;;;;;11.50;3.60;;;;;;;39.87;27.80;98490.33;67679;1280;1016323;-60
2023/08/26 11:40:40;;;;;;;9.80;3.80;;;;;;;39.46;27.46;98493.38;67717;1279;1019994;-60
2023/08/26 11:43:42;;;;;;;13.10;3.70;;;;;;;39.52;27.86;98491.23;67771;1280;1016535;-60
2023/08/26 11:46:45;;;;;;;12.70;4.00;;;;;;;39.77;28.08;98493.80;67744;1280;1016537;-60
2023/08/26 11:49:47;;;;;;;13.20;3.60;;;;;;;39.39;28.39;98483.70;67688;1280;1016511;-60
2023/08/26 11:52:50;;;;;;;11.40;3.30;;;;;;;39.28;28.00;98485.35;67678;1280;1016425;-61
2023/08/26 11:55:52;;;;;;;11.10;3.70;;;;;;;38.69;28.47;98492.39;67684;1280;1016418;-60
2023/08/26 11:58:55;;;;;;;13.60;3.70;;;;;;;38.63;29.03;98488.48;67720;1280;1016486;-60
2023/08/26 12:01:58;;;;;;;12.80;3.50;;;;;;;39.03;29.06;98487.61;67679;1280;1016307;-61
2023/08/26 12:05:00;;;;;;;11.50;3.80;;;;;;;39.12;28.73;98496.08;67720;1280;1016578;-61
2023/08/26 12:08:03;;;;;;;9.40;3.70;;;;;;;39.28;28.45;98501.20;67719;1280;1016507;-60
2023/08/26 12:11:06;;;;;;;17.20;4.20;;;;;;;39.14;28.75;98504.55;67685;1280;1016329;-60
2023/08/26 12:14:08;;;;;;;12.50;4.20;;;;;;;39.03;29.56;98500.39;67716;1280;1016288;-60
2023/08/26 12:17:10;;;;;;;9.50;3.40;;;;;;;39.10;29.67;98491.39;67733;1280;1016775;-60
2023/08/26 12:20:13;;;;;;;14.40;4.10;;;;;;;39.24;29.83;98483.04;67732;1280;1019519;-60
2023/08/26 12:23:15;;;;;;;12.70;4.10;;;;;;;39.24;29.62;98482.65;67699;1280;1016426;-61
2023/08/26 12:26:18;;;;;;;12.40;3.90;;;;;;;39.20;29.84;98484.55;67696;1280;1016878;-60
2023/08/26 12:29:20;;;;;;;10.90;3.50;;;;;;;38.87;29.72;98483.42;67718;1280;1016646;-60
2023/08/26 12:32:23;;;;;;;11.30;3.70;;;;;;;38.91;30.31;98485.25;67729;1280;1016410;-61
2023/08/26 12:35:25;;;;;;;8.30;3.30;;;;;;;38.93;29.44;98487.98;67701;1280;1016399;-60
2023/08/26 12:38:28;;;;;;;11.70;3.80;;;;;;;38.65;29.38;98494.23;67640;1280;1016516;-60
2023/08/26 12:41:31;;;;;;;12.20;3.60;;;;;;;38.34;29.48;98494.45;67757;1280;1016938;-60
2023/08/26 12:44:33;;;;;;;11.00;3.70;;;;;;;38.04;29.55;98493.51;67714;1280;1016709;-60
2023/08/26 12:47:35;;;;;;;11.60;3.60;;;;;;;37.58;29.93;98481.88;67726;1280;1017220;-60
2023/08/26 12:50:38;;;;;;;10.80;4.10;;;;;;;37.76;29.90;98480.06;67691;1280;1016480;-60
2023/08/26 12:53:42;;;;;;;13.70;3.70;;;;;;;37.60;30.06;98491.34;67688;1280;1016177;-60
2023/08/26 12:56:44;;;;;;;13.10;3.70;;;;;;;37.62;30.33;98489.68;67662;1280;1016518;-60
2023/08/26 12:59:46;;;;;;;9.20;3.40;;;;;;;37.63;30.10;98492.31;67685;1280;1016744;-60
2023/08/26 13:02:49;;;;;;;10.70;3.70;;;;;;;37.18;30.86;98487.77;67732;1280;1016495;-59
2023/08/26 13:05:52;;;;;;;11.60;3.50;;;;;;;37.04;30.98;98479.20;67733;1280;1016015;-60
2023/08/26 13:08:56;;;;;;;11.80;4.00;;;;;;;37.18;31.03;98483.66;67654;1280;1016062;-60
2023/08/26 13:12:00;;;;;;;14.10;4.10;;;;;;;37.52;30.68;98484.32;67665;1280;1018622;-60
2023/08/26 13:15:02;;;;;;;13.20;4.00;;;;;;;37.63;30.70;98488.64;67674;1280;1016280;-60
2023/08/26 13:18:05;;;;;;;12.20;3.70;;;;;;;37.36;30.83;98488.14;67713;1280;1016350;-60
2023/08/26 13:21:08;;;;;;;12.70;3.90;;;;;;;37.38;31.12;98489.34;67755;1280;1016532;-59
2023/08/26 13:24:10;;;;;;;13.90;4.30;;;;;;;37.54;31.43;98485.29;67702;1280;1016789;-60
2023/08/26 13:27:12;;;;;;;14.40;4.30;;;;;;;37.65;32.10;98475.56;67682;1280;1016488;-60
2023/08/26 13:30:15;;;;;;;13.30;4.00;;;;;;;37.86;32.09;98475.16;67662;1280;1016587;-60
2023/08/26 13:33:17;;;;;;;16.20;4.20;;;;;;;37.96;31.63;98478.61;67700;1280;1016375;-60
2023/08/26 13:36:20;;;;;;;18.20;4.90;;;;;;;37.98;31.92;98478.10;67716;1280;1016485;-59
2023/08/26 13:39:22;;;;;;;13.50;4.50;;;;;;;38.00;32.18;98474.70;67697;1280;1016375;-60
2023/08/26 13:42:25;;;;;;;21.20;5.00;;;;;;;37.99;32.50;98475.69;67634;1280;1016418;-60
2023/08/26 13:45:27;;;;;;;18.40;5.00;;;;;;;38.14;32.07;98480.60;67669;1280;1016396;-60
2023/08/26 13:48:30;;;;;;;20.70;5.20;;;;;;;38.32;32.14;98480.06;67702;1280;1016442;-59